Time;durP1;ratioP1;P1;durP2;ratioP2;P2;SDS_P1;SDS_P2;PMS_P1;PMS_P2;Temp;Humidity;BMP_temperature;BMP_pressure;BME280_temperature;BME280_humidity;BME280_pressure;Samples;Min_cycle;Max_cycle;Signal;HPM_P1;HPM_P2
2021/03/21 00:01:41;;;;;;;8.48;6.72;;;0.70;81.50;;;;;;4936288;29;20366;-87
2021/03/21 00:04:12;;;;;;;9.52;6.18;;;0.70;81.60;;;;;;4937476;29;20114;-88
2021/03/21 00:06:39;;;;;;;11.75;6.38;;;0.70;81.40;;;;;;4935502;29;20051;-87
2021/03/21 00:09:06;;;;;;;11.98;6.45;;;0.60;80.90;;;;;;4903407;29;20070;-87
2021/03/21 00:11:34;;;;;;;11.05;6.57;;;0.60;81.50;;;;;;4919207;29;20055;-85
2021/03/21 00:14:10;;;;;;;9.75;6.07;;;0.70;82.30;;;;;;4935590;29;20054;-88
2021/03/21 00:16:37;;;;;;;9.70;5.85;;;0.70;79.90;;;;;;4918991;29;20071;-87
2021/03/21 00:19:06;;;;;;;11.00;7.25;;;0.60;79.50;;;;;;4936210;29;20158;-89
2021/03/21 00:21:34;;;;;;;11.88;6.90;;;0.70;81.50;;;;;;4935931;29;20462;-87
2021/03/21 00:24:12;;;;;;;9.68;6.07;;;0.60;80.00;;;;;;4935688;29;20141;-86
2021/03/21 00:26:39;;;;;;;13.07;7.22;;;0.60;79.50;;;;;;4927325;29;20195;-87
2021/03/21 00:29:10;;;;;;;8.20;5.45;;;0.60;80.90;;;;;;4935494;29;20051;-87
2021/03/21 00:31:37;;;;;;;13.95;6.57;;;0.60;78.80;;;;;;4918303;29;20048;-86
2021/03/21 00:34:07;;;;;;;12.18;6.70;;;0.70;78.50;;;;;;4918107;29;20055;-88
2021/03/21 00:36:34;;;;;;;14.88;6.95;;;0.60;77.90;;;;;;4935742;29;20101;-87
2021/03/21 00:39:00;;;;;;;8.15;5.85;;;0.60;77.20;;;;;;4935214;29;20052;-86
2021/03/21 00:41:28;;;;;;;10.10;6.22;;;0.60;76.40;;;;;;4918390;29;20516;-85
2021/03/21 00:43:57;;;;;;;11.88;7.38;;;0.60;75.40;;;;;;4917639;29;20070;-86
2021/03/21 00:46:24;;;;;;;18.58;9.43;;;0.60;77.00;;;;;;4919450;29;20051;-87
2021/03/21 00:48:52;;;;;;;23.08;9.68;;;0.60;76.80;;;;;;4935637;29;20097;-86
2021/03/21 00:51:19;;;;;;;20.23;9.07;;;0.70;77.70;;;;;;4918934;29;20075;-88
2021/03/21 00:53:47;;;;;;;13.20;8.00;;;0.60;78.80;;;;;;4934347;29;20048;-86
2021/03/21 00:56:42;;;;;;;15.75;8.80;;;0.70;79.00;;;;;;4937076;29;20346;-88
2021/03/21 00:59:12;;;;;;;20.63;8.05;;;0.60;79.70;;;;;;4936967;29;20059;-87
2021/03/21 01:01:38;;;;;;;14.75;6.63;;;0.60;79.60;;;;;;4920922;29;20103;-87
2021/03/21 01:04:08;;;;;;;11.65;6.55;;;0.70;78.70;;;;;;4920752;29;20150;-86
2021/03/21 01:06:40;;;;;;;13.60;5.75;;;0.60;78.20;;;;;;4937725;29;20489;-86
2021/03/21 01:09:13;;;;;;;15.45;7.10;;;0.70;78.20;;;;;;4938254;29;20183;-86
2021/03/21 01:11:42;;;;;;;9.18;5.88;;;0.70;78.10;;;;;;4938368;29;20056;-86
2021/03/21 01:14:09;;;;;;;12.07;5.97;;;0.60;77.40;;;;;;4940495;29;20102;-87
2021/03/21 01:16:39;;;;;;;10.70;5.53;;;0.60;75.80;;;;;;4924704;29;20055;-87
2021/03/21 01:19:16;;;;;;;9.45;5.55;;;0.60;75.20;;;;;;4944742;29;20056;-87
2021/03/21 01:21:45;;;;;;;10.10;5.47;;;0.60;74.50;;;;;;4927838;29;20055;-87
2021/03/21 01:24:14;;;;;;;11.73;6.10;;;0.60;73.60;;;;;;4944309;29;20193;-87
2021/03/21 01:26:41;;;;;;;13.18;6.13;;;0.70;74.60;;;;;;4944860;29;20464;-88
2021/03/21 01:29:11;;;;;;;11.00;5.55;;;0.60;73.80;;;;;;4944508;29;20106;-86
2021/03/21 01:31:38;;;;;;;10.10;5.13;;;0.60;72.80;;;;;;4935805;29;20103;-86
2021/03/21 01:34:09;;;;;;;10.85;5.38;;;0.70;75.00;;;;;;4934038;29;20075;-87
2021/03/21 01:36:39;;;;;;;9.93;5.68;;;0.70;75.30;;;;;;4924498;29;20077;-87
2021/03/21 01:39:37;;;;;;;12.13;6.40;;;0.60;75.20;;;;;;4938830;29;20051;-87
2021/03/21 01:42:08;;;;;;;10.48;5.68;;;0.60;74.80;;;;;;4934584;29;20035;-87
2021/03/21 01:44:35;;;;;;;9.45;5.38;;;0.60;74.70;;;;;;4951395;29;20047;-86
2021/03/21 01:47:31;;;;;;;9.52;5.25;;;0.60;76.30;;;;;;4948121;29;20047;-88
2021/03/21 01:50:25;;;;;;;9.18;6.00;;;0.60;75.60;;;;;;4940332;29;20163;-87
2021/03/21 01:52:53;;;;;;;8.95;5.40;;;0.60;75.90;;;;;;4935252;28;20055;-85
2021/03/21 01:55:25;;;;;;;7.70;4.93;;;0.60;76.00;;;;;;4917555;29;20094;-87
2021/03/21 01:58:06;;;;;;;10.88;5.05;;;0.60;77.40;;;;;;4936920;29;20176;-88
2021/03/21 02:00:37;;;;;;;9.57;5.00;;;0.60;77.50;;;;;;4938374;29;20083;-88
2021/03/21 02:03:05;;;;;;;9.88;5.47;;;0.60;77.20;;;;;;4938559;29;20066;-86
2021/03/21 02:05:33;;;;;;;9.35;5.90;;;0.60;79.00;;;;;;4938988;29;20048;-86
2021/03/21 02:08:02;;;;;;;9.63;5.70;;;0.60;79.50;;;;;;4938969;29;20058;-87
2021/03/21 02:10:51;;;;;;;10.07;6.43;;;0.60;80.30;;;;;;4939425;29;20066;-86
2021/03/21 02:13:23;;;;;;;10.05;5.97;;;0.60;82.60;;;;;;4939877;29;20135;-87
2021/03/21 02:15:58;;;;;;;;;;;0.60;82.20;;;;;;4922729;29;20066;-87
2021/03/21 02:18:32;;;;;;;9.07;5.97;;;0.60;83.60;;;;;;4938645;29;19923;-87
2021/03/21 02:21:12;;;;;;;11.38;6.95;;;0.60;84.00;;;;;;4920836;29;20162;-87
2021/03/21 02:24:07;;;;;;;10.13;6.45;;;0.60;82.90;;;;;;4911739;29;20059;-87
2021/03/21 02:26:57;;;;;;;10.85;6.05;;;0.60;81.20;;;;;;4937465;29;20143;-86
2021/03/21 02:29:38;;;;;;;9.05;5.97;;;0.60;84.20;;;;;;4922620;29;20442;-86
2021/03/21 02:32:39;;;;;;;12.18;5.82;;;0.60;83.10;;;;;;4922288;29;20499;-87
2021/03/21 02:35:19;;;;;;;7.75;5.75;;;0.60;82.60;;;;;;4915967;29;20051;-88
2021/03/21 02:38:11;;;;;;;9.23;5.78;;;0.60;83.00;;;;;;4924271;29;20142;-87
2021/03/21 02:40:50;;;;;;;11.55;6.78;;;0.60;84.20;;;;;;4917435;29;20076;-87
2021/03/21 02:43:27;;;;;;;9.50;6.07;;;0.60;83.60;;;;;;4938102;29;20044;-88
2021/03/21 02:46:04;;;;;;;12.63;6.40;;;0.60;84.00;;;;;;4937100;29;20044;-86
2021/03/21 02:48:39;;;;;;;7.78;5.85;;;0.60;83.70;;;;;;4922946;29;20062;-86
2021/03/21 02:51:11;;;;;;;11.75;6.05;;;0.60;83.90;;;;;;4938058;29;20048;-87
2021/03/21 02:53:56;;;;;;;10.90;6.22;;;0.60;86.40;;;;;;4937982;29;20071;-86
2021/03/21 02:56:29;;;;;;;10.30;6.03;;;0.60;85.10;;;;;;4938235;29;20051;-87
2021/03/21 02:59:14;;;;;;;9.23;5.90;;;0.60;86.00;;;;;;4938642;29;20373;-87
2021/03/21 03:01:56;;;;;;;9.82;6.07;;;0.60;86.60;;;;;;4938600;29;20122;-86
2021/03/21 03:04:32;;;;;;;9.52;5.88;;;0.70;88.60;;;;;;4925283;29;20044;-85
2021/03/21 03:07:12;;;;;;;11.68;6.15;;;0.60;87.70;;;;;;4949273;29;20095;-88
2021/03/21 03:09:46;;;;;;;7.30;5.32;;;0.60;88.20;;;;;;4929315;29;20441;-86
2021/03/21 03:12:19;;;;;;;10.27;5.57;;;0.60;89.30;;;;;;4949529;29;20099;-88
2021/03/21 03:14:47;;;;;;;8.98;6.57;;;0.60;90.00;;;;;;4951107;28;20111;-88
2021/03/21 03:17:37;;;;;;;8.50;6.03;;;0.60;91.20;;;;;;4946649;29;20163;-86
2021/03/21 03:20:23;;;;;;;8.88;6.28;;;0.60;90.80;;;;;;4923316;29;20449;-88
2021/03/21 03:23:07;;;;;;;10.55;6.30;;;0.60;92.60;;;;;;4939321;29;20107;-87
2021/03/21 03:25:41;;;;;;;11.30;6.28;;;0.60;91.70;;;;;;4925388;29;20112;-88
2021/03/21 03:28:30;;;;;;;10.13;6.15;;;0.60;92.90;;;;;;4933191;29;20130;-88
2021/03/21 03:31:26;;;;;;;9.80;5.97;;;0.60;91.80;;;;;;4935742;29;20060;-86
2021/03/21 03:33:54;;;;;;;9.63;6.25;;;0.60;92.80;;;;;;4943695;29;20052;-87
2021/03/21 03:36:21;;;;;;;10.40;6.80;;;0.60;93.30;;;;;;4924976;29;20363;-87
2021/03/21 03:38:52;;;;;;;11.63;6.25;;;0.60;92.60;;;;;;4905830;29;20048;-88
2021/03/21 03:41:24;;;;;;;12.10;6.97;;;0.60;93.20;;;;;;4907856;29;20072;-86
2021/03/21 03:43:55;;;;;;;7.93;5.70;;;0.60;94.10;;;;;;4937832;29;20051;-87
2021/03/21 03:47:00;;;;;;;11.60;6.78;;;0.60;94.70;;;;;;4924883;29;20165;-88
2021/03/21 03:50:03;;;;;;;8.77;6.07;;;0.60;93.90;;;;;;4928723;29;20048;-86
2021/03/21 03:52:39;;;;;;;10.77;6.57;;;0.50;95.10;;;;;;4942019;29;20039;-86
2021/03/21 03:55:29;;;;;;;13.45;6.93;;;0.50;96.40;;;;;;4930820;29;20082;-87
2021/03/21 03:58:13;;;;;;;10.07;6.78;;;0.50;95.00;;;;;;4942010;29;20079;-87
2021/03/21 04:01:03;;;;;;;8.98;6.15;;;0.50;95.60;;;;;;4922843;29;20055;-87
2021/03/21 04:03:45;;;;;;;9.23;5.97;;;0.50;95.00;;;;;;4925447;29;20063;-87
2021/03/21 04:06:26;;;;;;;9.02;6.47;;;0.50;94.80;;;;;;4938854;29;20043;-87
2021/03/21 04:09:13;;;;;;;11.93;8.00;;;0.50;95.00;;;;;;4939599;29;20052;-86
2021/03/21 04:11:46;;;;;;;9.55;6.70;;;0.50;95.10;;;;;;4939839;29;20413;-86
2021/03/21 04:14:23;;;;;;;;;;;0.60;96.00;;;;;;4940736;29;20142;-86
2021/03/21 04:17:17;;;;;;;8.73;5.82;;;0.60;95.90;;;;;;4924649;29;19930;-86
2021/03/21 04:20:04;;;;;;;10.32;6.82;;;0.60;95.40;;;;;;4941357;29;20055;-88
2021/03/21 04:22:36;;;;;;;10.13;6.32;;;0.50;96.20;;;;;;4942523;29;20110;-87
2021/03/21 04:25:12;;;;;;;12.35;7.30;;;0.50;96.70;;;;;;4942664;29;20051;-88
2021/03/21 04:27:42;;;;;;;14.02;6.88;;;0.50;97.50;;;;;;4928705;29;21421;-86
2021/03/21 04:30:11;;;;;;;10.38;6.25;;;0.50;97.60;;;;;;4927565;29;20123;-86
2021/03/21 04:32:43;;;;;;;11.60;6.90;;;0.50;97.30;;;;;;4925615;29;20051;-87
2021/03/21 04:35:35;;;;;;;10.77;6.43;;;0.50;97.50;;;;;;4936909;29;20047;-85
2021/03/21 04:38:24;;;;;;;11.95;7.13;;;0.50;97.60;;;;;;4925734;29;20052;-88
2021/03/21 04:40:54;;;;;;;12.27;6.80;;;0.50;99.30;;;;;;4943497;29;20158;-88
2021/03/21 04:43:27;;;;;;;8.70;6.22;;;0.40;98.80;;;;;;4941604;29;20107;-86
2021/03/21 04:46:01;;;;;;;10.77;6.95;;;0.50;99.50;;;;;;4922681;29;20051;-87
2021/03/21 04:48:31;;;;;;;14.82;8.18;;;0.50;98.60;;;;;;4922244;29;20079;-86
2021/03/21 04:51:04;;;;;;;13.15;7.70;;;0.50;99.90;;;;;;4921480;29;20509;-89
2021/03/21 04:53:37;;;;;;;;;;;0.40;99.90;;;;;;4941499;29;20052;-88
2021/03/21 04:56:21;;;;;;;14.85;8.48;;;0.40;99.90;;;;;;4925985;29;19934;-87
2021/03/21 04:58:55;;;;;;;9.98;6.70;;;0.40;99.90;;;;;;4927503;29;20051;-87
2021/03/21 05:01:33;;;;;;;11.02;7.32;;;0.40;99.90;;;;;;4942247;29;20379;-86
2021/03/21 05:04:18;;;;;;;10.40;7.38;;;0.40;99.90;;;;;;4942356;29;20369;-88
2021/03/21 05:07:04;;;;;;;11.40;7.07;;;0.40;99.90;;;;;;4941703;29;20048;-86
2021/03/21 05:09:40;;;;;;;15.25;7.50;;;0.40;99.90;;;;;;4943029;29;20108;-86
2021/03/21 05:12:13;;;;;;;10.57;7.15;;;0.40;99.90;;;;;;4951623;29;20059;-87
2021/03/21 05:15:20;;;;;;;12.10;6.95;;;0.40;99.90;;;;;;4953626;29;20090;-88
2021/03/21 05:18:04;;;;;;;10.85;6.78;;;0.40;99.90;;;;;;4956903;29;20051;-86
2021/03/21 05:20:36;;;;;;;11.18;7.18;;;0.40;99.90;;;;;;4957580;29;20103;-87
2021/03/21 05:23:03;;;;;;;;;;;0.40;99.90;;;;;;4956175;29;20052;-87
2021/03/21 05:25:40;;;;;;;9.43;7.10;;;0.40;99.90;;;;;;4950717;29;19922;-85
2021/03/21 05:28:23;;;;;;;10.75;7.45;;;0.50;99.90;;;;;;4931629;29;20075;-87
2021/03/21 05:31:09;;;;;;;12.90;7.72;;;0.50;99.90;;;;;;4934314;29;20051;-87
2021/03/21 05:33:38;;;;;;;11.52;7.85;;;0.50;99.90;;;;;;4949012;29;20056;-87
2021/03/21 05:36:31;;;;;;;12.10;7.35;;;0.50;99.90;;;;;;4931490;29;20106;-87
2021/03/21 05:39:01;;;;;;;11.38;7.18;;;0.40;99.90;;;;;;4930207;29;20173;-87
2021/03/21 05:41:59;;;;;;;11.70;6.90;;;0.50;99.90;;;;;;4941965;29;20070;-86
2021/03/21 05:44:55;;;;;;;14.38;7.93;;;0.50;99.90;;;;;;4949285;29;20047;-85
2021/03/21 05:47:45;;;;;;;13.07;7.82;;;0.50;99.90;;;;;;4930942;29;20430;-88
2021/03/21 05:50:52;;;;;;;12.23;7.35;;;0.50;99.90;;;;;;4944662;29;20051;-87
2021/03/21 05:53:28;;;;;;;11.80;6.70;;;0.50;99.90;;;;;;4939829;29;20056;-88
2021/03/21 05:56:16;;;;;;;12.15;7.82;;;0.50;99.90;;;;;;4934267;29;20078;-86
2021/03/21 05:59:16;;;;;;;8.40;6.78;;;0.50;99.90;;;;;;4934758;29;20059;-87
2021/03/21 06:01:55;;;;;;;11.18;6.68;;;0.50;99.90;;;;;;4936876;29;20079;-89
2021/03/21 06:04:49;;;;;;;11.18;7.35;;;0.50;99.90;;;;;;4956139;29;20043;-88
2021/03/21 06:08:07;;;;;;;12.68;7.80;;;0.50;99.90;;;;;;4933406;29;20052;-87
2021/03/21 06:10:46;;;;;;;9.68;6.95;;;0.50;99.90;;;;;;4903480;29;20143;-87
2021/03/21 06:13:46;;;;;;;9.85;6.90;;;0.50;99.90;;;;;;4940327;29;20056;-86
2021/03/21 06:16:27;;;;;;;10.45;7.50;;;0.60;99.90;;;;;;4906009;29;20061;-86
2021/03/21 06:19:09;;;;;;;11.45;7.45;;;0.60;99.90;;;;;;4930333;29;20043;-88
2021/03/21 06:22:13;;;;;;;12.95;8.38;;;0.60;99.90;;;;;;4928481;29;20083;-87
2021/03/21 06:25:10;;;;;;;9.40;7.10;;;0.60;99.90;;;;;;4927031;29;20067;-87
2021/03/21 06:28:18;;;;;;;12.85;7.68;;;0.60;99.90;;;;;;4932394;29;20059;-85
2021/03/21 06:31:09;;;;;;;13.70;7.57;;;0.70;99.90;;;;;;4927431;29;20071;-87
2021/03/21 06:34:12;;;;;;;9.63;6.70;;;0.70;99.90;;;;;;4937805;29;20063;-86
2021/03/21 06:36:52;;;;;;;11.63;6.95;;;0.70;99.90;;;;;;4937384;29;20183;-87
2021/03/21 06:39:22;;;;;;;11.52;7.35;;;0.80;99.90;;;;;;4932671;29;20043;-87
2021/03/21 06:42:07;;;;;;;10.40;6.47;;;0.80;99.90;;;;;;4950165;29;20058;-86
2021/03/21 06:44:54;;;;;;;10.88;6.90;;;0.80;99.90;;;;;;4939099;29;20067;-87
2021/03/21 06:47:36;;;;;;;13.10;7.82;;;0.80;99.90;;;;;;4938500;29;20067;-86
2021/03/21 06:50:09;;;;;;;13.85;7.82;;;0.90;99.90;;;;;;4941240;29;20063;-86
2021/03/21 06:53:05;;;;;;;11.25;7.13;;;0.90;99.90;;;;;;4940098;29;20055;-87
2021/03/21 06:55:37;;;;;;;10.57;7.40;;;0.90;99.90;;;;;;4939978;29;20151;-86
2021/03/21 06:58:26;;;;;;;10.88;6.80;;;0.90;99.90;;;;;;4943531;29;20056;-86
2021/03/21 07:01:16;;;;;;;10.50;6.68;;;0.90;99.90;;;;;;4923916;29;20079;-86
2021/03/21 07:04:19;;;;;;;7.57;5.43;;;0.90;99.90;;;;;;4941139;29;20044;-88
2021/03/21 07:07:27;;;;;;;14.45;7.55;;;0.90;99.90;;;;;;4935838;29;20419;-86
2021/03/21 07:10:15;;;;;;;12.13;6.82;;;0.90;99.90;;;;;;4938829;29;20063;-88
2021/03/21 07:13:07;;;;;;;10.38;7.25;;;1.00;99.90;;;;;;4945871;29;20055;-86
2021/03/21 07:16:12;;;;;;;11.43;7.40;;;1.00;99.90;;;;;;4950692;29;20066;-87
2021/03/21 07:19:21;;;;;;;9.70;6.30;;;1.00;99.90;;;;;;4936712;29;20069;-86
2021/03/21 07:22:20;;;;;;;11.68;6.80;;;1.10;99.90;;;;;;4881659;29;20121;-86
2021/03/21 07:25:22;;;;;;;11.02;6.68;;;1.10;99.90;;;;;;4868597;29;20136;-85
2021/03/21 07:27:56;;;;;;;9.35;7.00;;;1.10;99.90;;;;;;4928522;29;20048;-87
2021/03/21 07:30:34;;;;;;;;;;;1.10;99.90;;;;;;4932770;29;20044;-86
2021/03/21 07:33:28;;;;;;;10.98;6.40;;;1.10;99.90;;;;;;4922396;29;19922;-86
2021/03/21 07:36:12;;;;;;;12.60;7.05;;;1.20;99.90;;;;;;4939562;29;20144;-87
2021/03/21 07:39:16;;;;;;;9.65;6.07;;;1.20;99.90;;;;;;4915372;29;20040;-86
2021/03/21 07:41:46;;;;;;;15.63;7.00;;;1.20;99.90;;;;;;4938807;29;20142;-85
2021/03/21 07:55:57;;;;;;;;;;;1.40;99.90;;;;;;4942131;29;20046;-86
2021/03/21 07:59:07;;;;;;;12.95;7.22;;;1.50;99.90;;;;;;4933558;29;19945;-85
2021/03/21 08:01:55;;;;;;;13.15;7.45;;;1.60;99.90;;;;;;4932610;29;20047;-87
2021/03/21 08:08:59;;;;;;;8.70;6.28;;;1.60;99.90;;;;;;4920000;29;20419;-86
2021/03/21 08:11:58;;;;;;;12.63;6.80;;;1.60;99.90;;;;;;4936825;29;20051;-85
2021/03/21 08:15:08;;;;;;;10.20;6.68;;;1.60;99.90;;;;;;4919818;29;20481;-86
2021/03/21 08:18:03;;;;;;;9.20;6.43;;;1.50;99.90;;;;;;4931153;29;20114;-87
2021/03/21 08:20:59;;;;;;;11.20;6.57;;;1.60;99.90;;;;;;4923539;29;20055;-86
2021/03/21 08:24:06;;;;;;;9.00;6.03;;;1.60;99.90;;;;;;4927535;29;20043;-86
2021/03/21 08:26:41;;;;;;;12.70;6.40;;;1.50;99.90;;;;;;4886179;29;20056;-87
2021/03/21 08:29:12;;;;;;;;;;;1.60;99.90;;;;;;4947901;29;20377;-85
2021/03/21 08:32:05;;;;;;;8.93;5.55;;;1.60;99.90;;;;;;4949296;29;19923;-86
2021/03/21 08:35:12;;;;;;;9.85;6.65;;;1.70;99.90;;;;;;4942681;29;20059;-87
2021/03/21 08:42:09;;;;;;;13.70;6.90;;;1.90;99.90;;;;;;4920600;29;20047;-86
2021/03/21 08:45:30;;;;;;;10.07;6.30;;;2.00;99.90;;;;;;4941867;29;20047;-87
2021/03/21 08:59:40;;;;;;;7.70;5.63;;;2.40;97.20;;;;;;4849331;29;20049;-88
2021/03/21 09:02:10;;;;;;;8.77;5.60;;;2.60;98.10;;;;;;4834915;29;20076;-86
2021/03/21 09:04:43;;;;;;;10.50;5.93;;;2.70;98.70;;;;;;4930633;29;20078;-87
2021/03/21 09:07:15;;;;;;;9.15;5.25;;;2.70;96.20;;;;;;4942348;29;20114;-89
2021/03/21 09:09:41;;;;;;;10.98;5.22;;;2.80;96.00;;;;;;4927437;29;20086;-88
2021/03/21 09:12:28;;;;;;;8.20;6.03;;;2.70;97.00;;;;;;4924207;29;20070;-87
2021/03/21 09:15:17;;;;;;;7.15;4.80;;;2.70;98.90;;;;;;4927996;29;20059;-86
2021/03/21 09:18:05;;;;;;;7.03;4.97;;;2.80;96.00;;;;;;4942378;29;20417;-84
2021/03/21 09:20:35;;;;;;;9.60;5.13;;;2.80;94.10;;;;;;4943304;29;20497;-87
2021/03/21 09:23:45;;;;;;;8.00;5.10;;;2.80;94.80;;;;;;4909930;29;20095;-87
2021/03/21 09:26:12;;;;;;;9.93;5.10;;;2.80;94.80;;;;;;4848892;29;20057;-87
2021/03/21 09:28:42;;;;;;;8.13;5.47;;;2.70;93.60;;;;;;4864223;29;20126;-86
2021/03/21 09:31:15;;;;;;;7.50;5.45;;;2.80;94.40;;;;;;4906230;29;20056;-86
2021/03/21 09:34:07;;;;;;;12.52;5.63;;;2.70;94.40;;;;;;4938369;29;20603;-84
2021/03/21 09:36:51;;;;;;;6.88;4.88;;;2.70;94.20;;;;;;4929228;29;20064;-86
2021/03/21 09:39:38;;;;;;;9.40;5.53;;;2.60;93.70;;;;;;4928294;29;20043;-87
2021/03/21 09:42:30;;;;;;;9.20;6.13;;;2.60;95.50;;;;;;4918690;29;20122;-84
2021/03/21 09:44:59;;;;;;;7.88;5.25;;;2.70;95.60;;;;;;4938708;29;20062;-85
2021/03/21 09:47:28;;;;;;;9.93;5.75;;;2.80;96.00;;;;;;4923342;29;20044;-85
2021/03/21 09:50:13;;;;;;;8.90;5.63;;;2.80;96.40;;;;;;4941669;29;20062;-86
2021/03/21 09:53:14;;;;;;;9.80;6.22;;;2.90;97.50;;;;;;4951760;29;20055;-87
2021/03/21 09:55:55;;;;;;;10.10;5.15;;;2.90;97.10;;;;;;4946846;29;20338;-86
2021/03/21 09:58:37;;;;;;;12.73;6.03;;;3.00;97.90;;;;;;4935236;29;20040;-87
2021/03/21 10:01:37;;;;;;;7.47;4.68;;;3.00;96.50;;;;;;4936941;29;20052;-87
2021/03/21 10:04:36;;;;;;;16.38;6.60;;;2.90;94.60;;;;;;4909599;29;20447;-86
2021/03/21 10:07:12;;;;;;;10.93;5.75;;;3.00;95.30;;;;;;4944617;29;20138;-87
2021/03/21 10:09:54;;;;;;;12.13;6.50;;;3.20;95.70;;;;;;4934248;29;20044;-87
2021/03/21 10:12:26;;;;;;;9.48;6.28;;;3.30;96.00;;;;;;4923484;29;20179;-87
2021/03/21 10:15:08;;;;;;;11.00;6.78;;;3.50;93.80;;;;;;4924586;29;20071;-86
2021/03/21 10:17:37;;;;;;;9.80;6.63;;;3.60;93.60;;;;;;4923029;29;20059;-87
2021/03/21 10:20:04;;;;;;;19.00;11.07;;;3.70;91.50;;;;;;4925405;29;20066;-87
2021/03/21 10:22:31;;;;;;;12.05;6.00;;;3.80;91.50;;;;;;4923280;29;20070;-87
2021/03/21 10:25:08;;;;;;;12.18;6.85;;;3.90;89.40;;;;;;4923287;29;20751;-87
2021/03/21 10:27:43;;;;;;;15.48;8.85;;;3.90;89.80;;;;;;4938392;29;20048;-85
2021/03/21 10:30:25;;;;;;;11.55;7.00;;;4.20;85.80;;;;;;4929604;29;20044;-86
2021/03/21 10:33:02;;;;;;;9.23;6.75;;;4.50;82.70;;;;;;4931063;29;20044;-86
2021/03/21 10:35:31;;;;;;;11.95;7.07;;;4.80;81.70;;;;;;4939314;29;20052;-86
2021/03/21 10:38:10;;;;;;;11.35;6.07;;;5.10;82.40;;;;;;4935889;29;20058;-87
2021/03/21 10:40:39;;;;;;;11.07;7.60;;;5.20;78.00;;;;;;4909195;29;20044;-87
2021/03/21 10:43:22;;;;;;;14.13;8.20;;;5.30;76.30;;;;;;4905234;29;20059;-87
2021/03/21 10:45:53;;;;;;;12.02;7.40;;;5.40;76.70;;;;;;4940184;29;20110;-86
2021/03/21 10:48:26;;;;;;;13.43;7.20;;;5.70;76.80;;;;;;4938576;29;20130;-85
2021/03/21 10:50:58;;;;;;;11.13;7.22;;;5.90;73.20;;;;;;4939626;29;20135;-88
2021/03/21 10:53:40;;;;;;;9.15;6.78;;;6.10;73.90;;;;;;4941926;29;20056;-88
2021/03/21 10:56:14;;;;;;;8.95;6.93;;;6.40;73.70;;;;;;4938023;29;20055;-88
2021/03/21 10:58:42;;;;;;;20.90;11.90;;;6.70;71.80;;;;;;4923251;29;20106;-86
2021/03/21 11:01:18;;;;;;;17.83;10.60;;;7.00;71.10;;;;;;4935642;29;20123;-86
2021/03/21 11:03:48;;;;;;;11.27;8.40;;;6.90;71.70;;;;;;4924746;29;20090;-86
2021/03/21 11:06:18;;;;;;;11.30;7.95;;;6.80;72.00;;;;;;4942816;29;20122;-88
2021/03/21 11:08:45;;;;;;;13.90;9.52;;;6.60;72.40;;;;;;4921298;29;20105;-86
2021/03/21 11:11:33;;;;;;;14.88;9.15;;;6.60;76.70;;;;;;4922290;29;20075;-88
2021/03/21 11:14:24;;;;;;;15.90;10.95;;;6.70;78.20;;;;;;4939674;29;20098;-88
2021/03/21 11:17:13;;;;;;;14.65;10.90;;;6.60;82.30;;;;;;4931963;29;20083;-88
2021/03/21 11:19:50;;;;;;;16.80;11.85;;;6.50;86.30;;;;;;4910156;29;20072;-86
2021/03/21 11:22:37;;;;;;;13.40;9.63;;;6.60;88.50;;;;;;4912157;29;20048;-88
2021/03/21 11:25:33;;;;;;;15.57;11.10;;;6.60;82.80;;;;;;4925125;29;20040;-85
2021/03/21 11:28:36;;;;;;;15.23;10.93;;;6.40;84.60;;;;;;4932299;29;20062;-86
2021/03/21 11:31:29;;;;;;;15.75;10.52;;;6.30;88.60;;;;;;4937097;29;20065;-87
2021/03/21 11:34:21;;;;;;;16.33;10.48;;;6.50;87.10;;;;;;4937854;29;20139;-88
2021/03/21 11:37:19;;;;;;;16.42;11.48;;;6.60;85.20;;;;;;4921399;29;20058;-87
2021/03/21 11:40:12;;;;;;;17.83;11.68;;;6.60;85.50;;;;;;4922625;29;20064;-87
2021/03/21 11:42:44;;;;;;;15.80;12.20;;;6.70;85.20;;;;;;4937605;29;20130;-86
2021/03/21 11:45:16;;;;;;;16.05;11.65;;;6.90;84.20;;;;;;4943734;29;20107;-87
2021/03/21 11:51:19;;;;;;;16.27;11.27;;;6.90;82.40;;;;;;4873909;29;20052;-89
2021/03/21 11:53:50;;;;;;;16.90;11.38;;;7.20;82.10;;;;;;4885832;29;20071;-86
2021/03/21 11:56:40;;;;;;;17.52;11.98;;;7.00;81.30;;;;;;4923513;29;20127;-86
2021/03/21 11:59:18;;;;;;;16.98;11.95;;;7.10;81.10;;;;;;4929714;29;20051;-88
2021/03/21 12:01:47;;;;;;;17.27;13.10;;;7.10;82.10;;;;;;4946917;29;20047;-86
2021/03/21 12:04:31;;;;;;;18.55;12.93;;;7.10;81.30;;;;;;4926076;29;20083;-86
2021/03/21 12:07:12;;;;;;;19.55;12.73;;;7.10;81.80;;;;;;4925574;29;20074;-88
2021/03/21 12:09:52;;;;;;;17.60;12.88;;;6.90;84.40;;;;;;4941548;29;20109;-89
2021/03/21 12:12:38;;;;;;;15.48;11.50;;;6.80;89.20;;;;;;4937502;29;20054;-85
2021/03/21 12:15:36;;;;;;;13.63;9.70;;;6.90;88.00;;;;;;4947785;29;20062;-88
2021/03/21 12:18:26;;;;;;;18.63;11.82;;;6.90;89.60;;;;;;4941794;29;20047;-88
2021/03/21 12:21:19;;;;;;;14.63;11.30;;;6.70;90.70;;;;;;4947534;29;20119;-89
2021/03/21 12:23:50;;;;;;;15.88;11.48;;;6.50;91.70;;;;;;4923190;29;20085;-86
2021/03/21 12:26:44;;;;;;;14.87;10.77;;;6.30;93.60;;;;;;4942858;29;20130;-87
2021/03/21 12:29:26;;;;;;;15.45;9.73;;;6.20;95.70;;;;;;4957352;29;20063;-87
2021/03/21 12:32:32;;;;;;;14.60;9.60;;;6.20;98.30;;;;;;4932478;29;20056;-89
2021/03/21 12:34:59;;;;;;;14.68;10.13;;;6.30;95.80;;;;;;4940547;29;20120;-89
2021/03/21 12:37:54;;;;;;;12.05;8.75;;;6.30;95.90;;;;;;4926941;29;20060;-88
2021/03/21 12:40:49;;;;;;;12.40;9.07;;;6.30;98.40;;;;;;4961921;29;20126;-88
2021/03/21 12:43:22;;;;;;;11.77;7.22;;;6.20;99.50;;;;;;4933990;29;20114;-87
2021/03/21 12:46:04;;;;;;;7.57;5.95;;;6.20;99.90;;;;;;4966010;29;20078;-88
2021/03/21 12:48:43;;;;;;;8.38;6.18;;;6.10;99.90;;;;;;4959152;29;20043;-87
2021/03/21 12:51:34;;;;;;;8.80;6.00;;;6.20;99.90;;;;;;4956679;29;20126;-88
2021/03/21 12:54:05;;;;;;;8.55;6.25;;;6.40;99.90;;;;;;4966902;29;20145;-87
2021/03/21 12:56:34;;;;;;;5.78;4.70;;;6.70;99.90;;;;;;4945974;29;20055;-86
2021/03/21 12:59:16;;;;;;;5.85;4.65;;;6.90;99.90;;;;;;4946410;29;20055;-87
2021/03/21 13:01:45;;;;;;;3.83;3.40;;;7.00;99.90;;;;;;4918242;29;20139;-86
2021/03/21 13:04:18;;;;;;;6.18;4.18;;;7.00;99.90;;;;;;4944556;29;20099;-88
2021/03/21 13:06:53;;;;;;;6.10;3.90;;;7.10;99.90;;;;;;4935189;29;20047;-87
2021/03/21 13:09:19;;;;;;;4.80;4.32;;;7.10;99.90;;;;;;4934491;29;20043;-88
2021/03/21 13:11:49;;;;;;;5.68;4.32;;;7.30;99.90;;;;;;4943400;29;20466;-90
2021/03/21 13:14:16;;;;;;;7.03;4.88;;;7.40;99.90;;;;;;4926954;29;20118;-88
2021/03/21 13:16:43;;;;;;;5.53;4.63;;;7.60;99.90;;;;;;4928829;29;20057;-89
2021/03/21 13:19:16;;;;;;;6.50;5.22;;;7.80;99.90;;;;;;4928767;29;20114;-89
2021/03/21 13:21:43;;;;;;;6.25;4.28;;;8.20;99.90;;;;;;4935771;29;20179;-87
2021/03/21 13:24:12;;;;;;;5.72;4.20;;;8.40;99.90;;;;;;4929604;29;20082;-89
2021/03/21 13:26:49;;;;;;;4.53;4.10;;;8.10;99.90;;;;;;4946715;29;20134;-88
2021/03/21 13:29:43;;;;;;;5.65;4.47;;;7.90;99.90;;;;;;4926388;29;20047;-88
2021/03/21 13:32:15;;;;;;;6.70;4.43;;;7.60;99.90;;;;;;4951169;29;20119;-89
2021/03/21 13:34:42;;;;;;;5.57;4.50;;;7.40;99.90;;;;;;4943484;29;20075;-85
2021/03/21 13:37:21;;;;;;;4.43;3.80;;;7.40;99.90;;;;;;4942528;29;20059;-89
2021/03/21 13:39:51;;;;;;;5.68;3.70;;;7.40;99.90;;;;;;4928565;29;20051;-91
2021/03/21 13:42:21;;;;;;;9.07;4.75;;;7.30;99.90;;;;;;4918709;29;20055;-86
2021/03/21 13:44:47;;;;;;;7.90;5.90;;;7.20;99.90;;;;;;4927720;29;20127;-87
2021/03/21 13:47:14;;;;;;;6.50;5.20;;;7.10;99.90;;;;;;4943351;29;20060;-89
2021/03/21 13:49:44;;;;;;;6.43;5.03;;;7.10;99.90;;;;;;4941415;29;20055;-88
2021/03/21 13:52:17;;;;;;;6.88;5.10;;;7.10;99.90;;;;;;4938421;29;20048;-88
2021/03/21 13:54:44;;;;;;;6.93;5.40;;;7.10;99.90;;;;;;4924288;29;20059;-88
2021/03/21 13:57:12;;;;;;;12.25;6.45;;;7.10;99.90;;;;;;4926860;29;20056;-91
2021/03/21 13:59:38;;;;;;;6.78;5.43;;;7.00;99.90;;;;;;4936269;29;20362;-92
2021/03/21 14:02:19;;;;;;;7.35;5.18;;;6.80;99.90;;;;;;4948421;28;20047;-90
2021/03/21 14:04:49;;;;;;;7.80;6.28;;;6.40;99.90;;;;;;4943103;29;20388;-92
2021/03/21 14:07:32;;;;;;;7.38;6.38;;;6.40;99.90;;;;;;4926780;29;20064;-88
2021/03/21 14:10:28;;;;;;;8.73;6.47;;;6.30;99.90;;;;;;4923537;29;20051;-89
2021/03/21 14:12:55;;;;;;;6.22;5.25;;;6.30;99.90;;;;;;4922279;29;20071;-88
2021/03/21 14:15:27;;;;;;;7.13;5.93;;;6.40;99.90;;;;;;4917863;29;20044;-89
2021/03/21 14:17:53;;;;;;;9.35;5.72;;;6.50;99.90;;;;;;4922843;29;20066;-87
2021/03/21 14:20:25;;;;;;;7.97;5.65;;;6.50;99.90;;;;;;4925824;29;20170;-87
2021/03/21 14:22:53;;;;;;;7.05;5.60;;;6.60;99.90;;;;;;4949109;29;20059;-88
2021/03/21 14:25:22;;;;;;;7.55;5.40;;;6.80;99.90;;;;;;4929419;29;20530;-90
2021/03/21 14:27:53;;;;;;;7.13;5.72;;;6.90;99.90;;;;;;4955987;29;20080;-83
2021/03/21 14:30:24;;;;;;;5.55;4.78;;;6.80;99.90;;;;;;4928527;29;20144;-88
2021/03/21 14:32:52;;;;;;;9.02;6.20;;;6.80;99.90;;;;;;4927149;29;20058;-87
2021/03/21 14:35:20;;;;;;;11.18;5.78;;;6.50;99.90;;;;;;4927038;29;20159;-87